sensor_id;sensor_type;location;lat;lon;timestamp;temperature;humidity
83254;HTU21D;73149;47.270;39.602;2024-03-08T00:01:48;-3.35;70.71
83254;HTU21D;73149;47.270;39.602;2024-03-08T00:07:24;-3.28;70.90
83254;HTU21D;73149;47.270;39.602;2024-03-08T00:10:02;-3.27;70.93
83254;HTU21D;73149;47.270;39.602;2024-03-08T00:12:50;-3.23;70.79
83254;HTU21D;73149;47.270;39.602;2024-03-08T00:15:28;-3.19;70.79
83254;HTU21D;73149;47.270;39.602;2024-03-08T00:17:55;-3.13;70.84
83254;HTU21D;73149;47.270;39.602;2024-03-08T00:20:34;-3.16;70.86
83254;HTU21D;73149;47.270;39.602;2024-03-08T00:23:04;-3.16;70.92
83254;HTU21D;73149;47.270;39.602;2024-03-08T00:25:33;-3.08;70.99
83254;HTU21D;73149;47.270;39.602;2024-03-08T00:28:01;-3.04;70.90
83254;HTU21D;73149;47.270;39.602;2024-03-08T00:30:31;-3.00;70.84
83254;HTU21D;73149;47.270;39.602;2024-03-08T00:33:29;-2.98;70.95
83254;HTU21D;73149;47.270;39.602;2024-03-08T00:36:08;-3.03;70.99
83254;HTU21D;73149;47.270;39.602;2024-03-08T00:38:40;-2.98;71.08
83254;HTU21D;73149;47.270;39.602;2024-03-08T00:41:52;-2.92;71.10
83254;HTU21D;73149;47.270;39.602;2024-03-08T00:44:48;-2.96;71.18
83254;HTU21D;73149;47.270;39.602;2024-03-08T00:50:40;-2.98;71.18
83254;HTU21D;73149;47.270;39.602;2024-03-08T00:53:09;-2.97;71.06
83254;HTU21D;73149;47.270;39.602;2024-03-08T00:59:06;-2.98;71.06
83254;HTU21D;73149;47.270;39.602;2024-03-08T01:01:59;-3.03;71.05
83254;HTU21D;73149;47.270;39.602;2024-03-08T01:04:28;-3.04;71.03
83254;HTU21D;73149;47.270;39.602;2024-03-08T01:06:55;-3.02;71.15
83254;HTU21D;73149;47.270;39.602;2024-03-08T01:09:31;-3.01;71.11
83254;HTU21D;73149;47.270;39.602;2024-03-08T01:11:57;-3.02;71.32
83254;HTU21D;73149;47.270;39.602;2024-03-08T01:14:27;-3.05;71.36
83254;HTU21D;73149;47.270;39.602;2024-03-08T01:17:07;-3.03;71.31
83254;HTU21D;73149;47.270;39.602;2024-03-08T01:19:47;-3.04;71.26
83254;HTU21D;73149;47.270;39.602;2024-03-08T01:22:31;-3.02;71.32
83254;HTU21D;73149;47.270;39.602;2024-03-08T01:25:14;-2.98;71.35
83254;HTU21D;73149;47.270;39.602;2024-03-08T01:27:48;-3.02;71.30
83254;HTU21D;73149;47.270;39.602;2024-03-08T01:30:32;-3.03;71.34
83254;HTU21D;73149;47.270;39.602;2024-03-08T01:33:31;-2.98;71.22
83254;HTU21D;73149;47.270;39.602;2024-03-08T01:36:08;-2.96;71.23
83254;HTU21D;73149;47.270;39.602;2024-03-08T01:38:36;-2.96;71.24
83254;HTU21D;73149;47.270;39.602;2024-03-08T01:41:13;-2.95;71.26
83254;HTU21D;73149;47.270;39.602;2024-03-08T01:43:51;-2.91;71.26
83254;HTU21D;73149;47.270;39.602;2024-03-08T01:46:35;-2.94;71.09
83254;HTU21D;73149;47.270;39.602;2024-03-08T01:49:43;-3.03;71.14
83254;HTU21D;73149;47.270;39.602;2024-03-08T01:52:23;-3.05;71.20
83254;HTU21D;73149;47.270;39.602;2024-03-08T01:54:50;-3.04;71.29
83254;HTU21D;73149;47.270;39.602;2024-03-08T01:57:20;-3.06;71.14
83254;HTU21D;73149;47.270;39.602;2024-03-08T02:00:07;-3.03;71.03
83254;HTU21D;73149;47.270;39.602;2024-03-08T02:02:46;-3.06;71.10
83254;HTU21D;73149;47.270;39.602;2024-03-08T02:05:25;-3.07;71.15
83254;HTU21D;73149;47.270;39.602;2024-03-08T02:08:06;-3.09;71.11
83254;HTU21D;73149;47.270;39.602;2024-03-08T02:11:13;-3.12;71.17
83254;HTU21D;73149;47.270;39.602;2024-03-08T02:13:52;-3.16;71.20
83254;HTU21D;73149;47.270;39.602;2024-03-08T02:16:21;-3.18;71.24
83254;HTU21D;73149;47.270;39.602;2024-03-08T02:18:56;-3.23;71.19
83254;HTU21D;73149;47.270;39.602;2024-03-08T02:21:23;-3.25;71.36
83254;HTU21D;73149;47.270;39.602;2024-03-08T02:23:53;-3.23;71.31
83254;HTU21D;73149;47.270;39.602;2024-03-08T02:26:40;-3.20;71.32
83254;HTU21D;73149;47.270;39.602;2024-03-08T02:29:23;-3.23;71.19
83254;HTU21D;73149;47.270;39.602;2024-03-08T02:32:08;-3.24;71.18
83254;HTU21D;73149;47.270;39.602;2024-03-08T02:34:44;-3.26;71.36
83254;HTU21D;73149;47.270;39.602;2024-03-08T02:37:11;-3.31;71.39
83254;HTU21D;73149;47.270;39.602;2024-03-08T02:39:44;-3.31;71.42
83254;HTU21D;73149;47.270;39.602;2024-03-08T02:46:00;-3.20;71.24
83254;HTU21D;73149;47.270;39.602;2024-03-08T02:48:46;-3.21;71.26
83254;HTU21D;73149;47.270;39.602;2024-03-08T02:51:37;-3.23;71.16
83254;HTU21D;73149;47.270;39.602;2024-03-08T02:54:41;-3.24;71.26
83254;HTU21D;73149;47.270;39.602;2024-03-08T02:58:03;-3.20;71.35
83254;HTU21D;73149;47.270;39.602;2024-03-08T03:00:35;-3.30;71.22
83254;HTU21D;73149;47.270;39.602;2024-03-08T03:03:25;-3.36;71.29
83254;HTU21D;73149;47.270;39.602;2024-03-08T03:05:54;-3.37;71.42
83254;HTU21D;73149;47.270;39.602;2024-03-08T03:08:26;-3.34;71.32
83254;HTU21D;73149;47.270;39.602;2024-03-08T03:11:15;-3.35;71.35
83254;HTU21D;73149;47.270;39.602;2024-03-08T03:13:58;-3.37;71.32
83254;HTU21D;73149;47.270;39.602;2024-03-08T03:16:50;-3.47;71.35
83254;HTU21D;73149;47.270;39.602;2024-03-08T03:20:00;-3.42;71.49
83254;HTU21D;73149;47.270;39.602;2024-03-08T03:22:36;-3.39;71.38
83254;HTU21D;73149;47.270;39.602;2024-03-08T03:25:06;-3.35;71.40
83254;HTU21D;73149;47.270;39.602;2024-03-08T03:27:38;-3.30;71.35
83254;HTU21D;73149;47.270;39.602;2024-03-08T03:33:27;-3.26;71.22
83254;HTU21D;73149;47.270;39.602;2024-03-08T03:36:05;-3.19;71.10
83254;HTU21D;73149;47.270;39.602;2024-03-08T03:38:40;-3.17;71.10
83254;HTU21D;73149;47.270;39.602;2024-03-08T03:41:16;-3.16;71.05
83254;HTU21D;73149;47.270;39.602;2024-03-08T03:43:43;-3.09;71.02
83254;HTU21D;73149;47.270;39.602;2024-03-08T03:46:25;-3.07;70.94
83254;HTU21D;73149;47.270;39.602;2024-03-08T03:48:58;-3.02;70.85
83254;HTU21D;73149;47.270;39.602;2024-03-08T03:51:30;-3.06;70.71
83254;HTU21D;73149;47.270;39.602;2024-03-08T03:54:16;-3.10;70.66
83254;HTU21D;73149;47.270;39.602;2024-03-08T03:57:18;-3.23;70.61
83254;HTU21D;73149;47.270;39.602;2024-03-08T04:00:08;-3.23;70.81
83254;HTU21D;73149;47.270;39.602;2024-03-08T04:02:53;-3.26;70.74
83254;HTU21D;73149;47.270;39.602;2024-03-08T04:05:36;-3.28;70.74
83254;HTU21D;73149;47.270;39.602;2024-03-08T04:08:12;-3.30;70.72
83254;HTU21D;73149;47.270;39.602;2024-03-08T04:10:58;-3.26;70.63
83254;HTU21D;73149;47.270;39.602;2024-03-08T04:13:40;-3.28;70.68
83254;HTU21D;73149;47.270;39.602;2024-03-08T04:16:19;-3.32;70.60
83254;HTU21D;73149;47.270;39.602;2024-03-08T04:18:46;-3.33;70.71
83254;HTU21D;73149;47.270;39.602;2024-03-08T04:21:23;-3.31;70.60
83254;HTU21D;73149;47.270;39.602;2024-03-08T04:23:50;-3.30;70.64
83254;HTU21D;73149;47.270;39.602;2024-03-08T04:26:31;-3.23;70.56
83254;HTU21D;73149;47.270;39.602;2024-03-08T04:28:57;-3.21;70.53
83254;HTU21D;73149;47.270;39.602;2024-03-08T04:31:46;-3.20;70.56
83254;HTU21D;73149;47.270;39.602;2024-03-08T04:34:15;-3.18;70.42
83254;HTU21D;73149;47.270;39.602;2024-03-08T04:36:41;-3.19;70.39
83254;HTU21D;73149;47.270;39.602;2024-03-08T04:39:18;-3.16;70.52
83254;HTU21D;73149;47.270;39.602;2024-03-08T04:42:10;-3.11;70.48
83254;HTU21D;73149;47.270;39.602;2024-03-08T04:44:37;-3.12;70.39
83254;HTU21D;73149;47.270;39.602;2024-03-08T04:50:18;-3.15;70.36
83254;HTU21D;73149;47.270;39.602;2024-03-08T04:52:45;-3.10;70.45
83254;HTU21D;73149;47.270;39.602;2024-03-08T04:55:12;-3.07;70.37
83254;HTU21D;73149;47.270;39.602;2024-03-08T04:57:43;-3.00;70.35
83254;HTU21D;73149;47.270;39.602;2024-03-08T05:00:23;-2.98;70.25
83254;HTU21D;73149;47.270;39.602;2024-03-08T05:02:52;-3.01;70.26
83254;HTU21D;73149;47.270;39.602;2024-03-08T05:05:22;-3.01;70.10
83254;HTU21D;73149;47.270;39.602;2024-03-08T05:07:53;-3.02;70.22
83254;HTU21D;73149;47.270;39.602;2024-03-08T05:10:55;-2.96;70.32
83254;HTU21D;73149;47.270;39.602;2024-03-08T05:13:23;-3.01;70.16
83254;HTU21D;73149;47.270;39.602;2024-03-08T05:16:00;-3.04;70.19
83254;HTU21D;73149;47.270;39.602;2024-03-08T05:18:31;-3.00;70.26
83254;HTU21D;73149;47.270;39.602;2024-03-08T05:21:12;-3.00;70.23
83254;HTU21D;73149;47.270;39.602;2024-03-08T05:26:43;-2.88;70.09
83254;HTU21D;73149;47.270;39.602;2024-03-08T05:29:21;-2.91;70.12
83254;HTU21D;73149;47.270;39.602;2024-03-08T05:31:55;-2.91;70.15
83254;HTU21D;73149;47.270;39.602;2024-03-08T05:34:38;-2.89;70.19
83254;HTU21D;73149;47.270;39.602;2024-03-08T05:37:19;-2.90;70.15
83254;HTU21D;73149;47.270;39.602;2024-03-08T05:40:03;-2.80;70.36
83254;HTU21D;73149;47.270;39.602;2024-03-08T05:42:35;-2.73;70.36
83254;HTU21D;73149;47.270;39.602;2024-03-08T05:45:05;-2.64;70.35
83254;HTU21D;73149;47.270;39.602;2024-03-08T05:47:36;-2.59;70.16
83254;HTU21D;73149;47.270;39.602;2024-03-08T05:50:05;-2.59;70.28
83254;HTU21D;73149;47.270;39.602;2024-03-08T05:52:38;-2.51;70.28
83254;HTU21D;73149;47.270;39.602;2024-03-08T05:55:12;-2.48;70.25
83254;HTU21D;73149;47.270;39.602;2024-03-08T05:58:01;-2.46;70.29
83254;HTU21D;73149;47.270;39.602;2024-03-08T06:00:30;-2.45;70.12
83254;HTU21D;73149;47.270;39.602;2024-03-08T06:03:20;-2.38;70.22
83254;HTU21D;73149;47.270;39.602;2024-03-08T06:06:01;-2.28;70.17
83254;HTU21D;73149;47.270;39.602;2024-03-08T06:08:28;-2.22;70.07
83254;HTU21D;73149;47.270;39.602;2024-03-08T06:10:56;-2.18;70.14
83254;HTU21D;73149;47.270;39.602;2024-03-08T06:13:33;-2.27;70.16
83254;HTU21D;73149;47.270;39.602;2024-03-08T06:16:00;-2.22;70.29
83254;HTU21D;73149;47.270;39.602;2024-03-08T06:18:27;-2.19;70.35
83254;HTU21D;73149;47.270;39.602;2024-03-08T06:20:53;-2.14;70.36
83254;HTU21D;73149;47.270;39.602;2024-03-08T06:23:19;-2.04;70.26
83254;HTU21D;73149;47.270;39.602;2024-03-08T06:25:47;-2.05;70.19
83254;HTU21D;73149;47.270;39.602;2024-03-08T06:28:13;-2.09;70.21
83254;HTU21D;73149;47.270;39.602;2024-03-08T06:30:50;-2.00;70.17
83254;HTU21D;73149;47.270;39.602;2024-03-08T06:33:19;-2.00;70.09
83254;HTU21D;73149;47.270;39.602;2024-03-08T06:35:48;-1.91;70.12
83254;HTU21D;73149;47.270;39.602;2024-03-08T06:38:24;-1.88;70.00
83254;HTU21D;73149;47.270;39.602;2024-03-08T06:40:56;-1.78;70.07
83254;HTU21D;73149;47.270;39.602;2024-03-08T06:43:32;-1.72;69.89
83254;HTU21D;73149;47.270;39.602;2024-03-08T06:46:02;-1.61;69.90
83254;HTU21D;73149;47.270;39.602;2024-03-08T06:48:29;-1.56;69.78
83254;HTU21D;73149;47.270;39.602;2024-03-08T06:50:56;-1.45;69.73
83254;HTU21D;73149;47.270;39.602;2024-03-08T06:53:22;-1.43;69.71
83254;HTU21D;73149;47.270;39.602;2024-03-08T06:55:51;-1.54;69.58
83254;HTU21D;73149;47.270;39.602;2024-03-08T06:58:17;-1.57;69.86
83254;HTU21D;73149;47.270;39.602;2024-03-08T07:00:46;-1.61;69.68
83254;HTU21D;73149;47.270;39.602;2024-03-08T07:03:24;-1.54;69.84
83254;HTU21D;73149;47.270;39.602;2024-03-08T07:05:52;-1.47;69.59
83254;HTU21D;73149;47.270;39.602;2024-03-08T07:08:22;-1.42;69.44
83254;HTU21D;73149;47.270;39.602;2024-03-08T07:10:48;-1.39;69.34
83254;HTU21D;73149;47.270;39.602;2024-03-08T07:13:17;-1.24;69.27
83254;HTU21D;73149;47.270;39.602;2024-03-08T07:15:47;-1.25;69.07
83254;HTU21D;73149;47.270;39.602;2024-03-08T07:18:18;-1.34;69.08
83254;HTU21D;73149;47.270;39.602;2024-03-08T07:20:50;-1.33;69.22
83254;HTU21D;73149;47.270;39.602;2024-03-08T07:23:19;-1.49;69.07
83254;HTU21D;73149;47.270;39.602;2024-03-08T07:26:04;-1.55;69.38
83254;HTU21D;73149;47.270;39.602;2024-03-08T07:28:39;-1.57;69.40
83254;HTU21D;73149;47.270;39.602;2024-03-08T07:31:05;-1.46;69.39
83254;HTU21D;73149;47.270;39.602;2024-03-08T07:33:42;-1.38;69.20
83254;HTU21D;73149;47.270;39.602;2024-03-08T07:36:11;-1.36;68.86
83254;HTU21D;73149;47.270;39.602;2024-03-08T07:38:40;-1.29;68.99
83254;HTU21D;73149;47.270;39.602;2024-03-08T07:41:09;-1.14;68.79
83254;HTU21D;73149;47.270;39.602;2024-03-08T07:43:35;-1.08;68.58
83254;HTU21D;73149;47.270;39.602;2024-03-08T07:46:02;-0.94;68.53
83254;HTU21D;73149;47.270;39.602;2024-03-08T07:48:38;-0.85;68.36
83254;HTU21D;73149;47.270;39.602;2024-03-08T07:51:26;-0.90;68.42
83254;HTU21D;73149;47.270;39.602;2024-03-08T07:53:52;-0.99;68.41
83254;HTU21D;73149;47.270;39.602;2024-03-08T07:56:27;-0.95;68.58
83254;HTU21D;73149;47.270;39.602;2024-03-08T07:59:08;-0.87;68.55
83254;HTU21D;73149;47.270;39.602;2024-03-08T08:01:37;-0.77;68.49
83254;HTU21D;73149;47.270;39.602;2024-03-08T08:04:14;-0.74;68.30
83254;HTU21D;73149;47.270;39.602;2024-03-08T08:06:41;-0.85;68.06
83254;HTU21D;73149;47.270;39.602;2024-03-08T08:09:18;-1.01;68.03
83254;HTU21D;73149;47.270;39.602;2024-03-08T08:11:55;-1.00;67.92
83254;HTU21D;73149;47.270;39.602;2024-03-08T08:14:21;-0.91;67.96
83254;HTU21D;73149;47.270;39.602;2024-03-08T08:16:47;-0.73;67.78
83254;HTU21D;73149;47.270;39.602;2024-03-08T08:19:16;-0.55;67.51
83254;HTU21D;73149;47.270;39.602;2024-03-08T08:21:42;-0.51;67.42
83254;HTU21D;73149;47.270;39.602;2024-03-08T08:24:08;-0.37;67.19
83254;HTU21D;73149;47.270;39.602;2024-03-08T08:26:34;-0.28;67.23
83254;HTU21D;73149;47.270;39.602;2024-03-08T08:29:05;-0.31;66.97
83254;HTU21D;73149;47.270;39.602;2024-03-08T08:31:32;-0.34;67.06
83254;HTU21D;73149;47.270;39.602;2024-03-08T08:34:02;-0.26;67.04
83254;HTU21D;73149;47.270;39.602;2024-03-08T08:36:28;-0.15;66.93
83254;HTU21D;73149;47.270;39.602;2024-03-08T08:39:01;-0.13;66.76
83254;HTU21D;73149;47.270;39.602;2024-03-08T08:41:29;0.06;66.43
83254;HTU21D;73149;47.270;39.602;2024-03-08T08:43:55;0.15;66.25
83254;HTU21D;73149;47.270;39.602;2024-03-08T08:46:21;0.15;65.95
83254;HTU21D;73149;47.270;39.602;2024-03-08T08:48:47;0.19;66.07
83254;HTU21D;73149;47.270;39.602;2024-03-08T08:51:13;0.32;65.95
83254;HTU21D;73149;47.270;39.602;2024-03-08T08:53:44;0.18;65.89
83254;HTU21D;73149;47.270;39.602;2024-03-08T08:56:14;0.04;66.20
83254;HTU21D;73149;47.270;39.602;2024-03-08T08:58:40;-0.05;66.33
83254;HTU21D;73149;47.270;39.602;2024-03-08T09:01:09;-0.06;66.36
83254;HTU21D;73149;47.270;39.602;2024-03-08T09:03:38;0.09;66.30
83254;HTU21D;73149;47.270;39.602;2024-03-08T09:06:08;0.17;66.11
83254;HTU21D;73149;47.270;39.602;2024-03-08T09:08:39;0.29;66.07
83254;HTU21D;73149;47.270;39.602;2024-03-08T09:11:08;0.50;65.78
83254;HTU21D;73149;47.270;39.602;2024-03-08T09:13:35;0.62;65.58
83254;HTU21D;73149;47.270;39.602;2024-03-08T09:16:11;0.59;65.40
83254;HTU21D;73149;47.270;39.602;2024-03-08T09:18:37;0.44;65.53
83254;HTU21D;73149;47.270;39.602;2024-03-08T09:21:14;0.34;65.81
83254;HTU21D;73149;47.270;39.602;2024-03-08T09:23:43;0.27;65.93
83254;HTU21D;73149;47.270;39.602;2024-03-08T09:26:12;0.17;65.71
83254;HTU21D;73149;47.270;39.602;2024-03-08T09:28:49;0.18;65.61
83254;HTU21D;73149;47.270;39.602;2024-03-08T09:31:17;0.40;65.43
83254;HTU21D;73149;47.270;39.602;2024-03-08T09:33:45;0.59;64.82
83254;HTU21D;73149;47.270;39.602;2024-03-08T09:36:13;0.82;64.40
83254;HTU21D;73149;47.270;39.602;2024-03-08T09:41:22;1.28;63.47
83254;HTU21D;73149;47.270;39.602;2024-03-08T09:44:06;1.31;62.87
83254;HTU21D;73149;47.270;39.602;2024-03-08T09:46:39;1.36;62.82
83254;HTU21D;73149;47.270;39.602;2024-03-08T09:49:06;1.40;62.15
83254;HTU21D;73149;47.270;39.602;2024-03-08T09:51:38;1.43;62.43
83254;HTU21D;73149;47.270;39.602;2024-03-08T09:54:14;1.82;62.21
83254;HTU21D;73149;47.270;39.602;2024-03-08T09:57:18;2.22;61.54
83254;HTU21D;73149;47.270;39.602;2024-03-08T09:59:52;2.46;61.15
83254;HTU21D;73149;47.270;39.602;2024-03-08T10:02:26;2.69;61.24
83254;HTU21D;73149;47.270;39.602;2024-03-08T10:04:58;3.08;61.43
83254;HTU21D;73149;47.270;39.602;2024-03-08T10:07:30;3.30;61.11
83254;HTU21D;73149;47.270;39.602;2024-03-08T10:09:59;3.21;60.59
83254;HTU21D;73149;47.270;39.602;2024-03-08T10:12:38;3.27;60.54
83254;HTU21D;73149;47.270;39.602;2024-03-08T10:18:15;3.58;59.84
83254;HTU21D;73149;47.270;39.602;2024-03-08T10:21:05;3.58;58.91
83254;HTU21D;73149;47.270;39.602;2024-03-08T10:23:33;3.60;58.26
83254;HTU21D;73149;47.270;39.602;2024-03-08T10:26:14;3.68;57.71
83254;HTU21D;73149;47.270;39.602;2024-03-08T10:28:51;3.80;57.73
83254;HTU21D;73149;47.270;39.602;2024-03-08T10:31:19;3.85;57.60
83254;HTU21D;73149;47.270;39.602;2024-03-08T10:33:46;3.92;57.64
83254;HTU21D;73149;47.270;39.602;2024-03-08T10:36:14;3.97;57.49
83254;HTU21D;73149;47.270;39.602;2024-03-08T10:39:24;3.87;56.59
83254;HTU21D;73149;47.270;39.602;2024-03-08T10:42:00;3.55;56.55
83254;HTU21D;73149;47.270;39.602;2024-03-08T10:48:38;3.63;57.11
83254;HTU21D;73149;47.270;39.602;2024-03-08T10:51:14;4.06;56.97
83254;HTU21D;73149;47.270;39.602;2024-03-08T10:53:48;4.35;56.28
83254;HTU21D;73149;47.270;39.602;2024-03-08T10:56:20;4.42;55.71
83254;HTU21D;73149;47.270;39.602;2024-03-08T10:58:51;4.62;55.65
83254;HTU21D;73149;47.270;39.602;2024-03-08T11:01:18;5.07;54.97
83254;HTU21D;73149;47.270;39.602;2024-03-08T11:03:45;5.46;54.53
83254;HTU21D;73149;47.270;39.602;2024-03-08T11:06:22;5.80;53.75
83254;HTU21D;73149;47.270;39.602;2024-03-08T11:08:49;6.00;53.23
83254;HTU21D;73149;47.270;39.602;2024-03-08T11:11:42;6.16;52.70
83254;HTU21D;73149;47.270;39.602;2024-03-08T11:14:46;6.40;51.17
83254;HTU21D;73149;47.270;39.602;2024-03-08T11:20:00;6.86;49.73
83254;HTU21D;73149;47.270;39.602;2024-03-08T11:23:05;6.50;49.11
83254;HTU21D;73149;47.270;39.602;2024-03-08T11:25:47;6.38;49.08
83254;HTU21D;73149;47.270;39.602;2024-03-08T11:28:23;6.58;49.59
83254;HTU21D;73149;47.270;39.602;2024-03-08T11:33:46;7.48;47.63
83254;HTU21D;73149;47.270;39.602;2024-03-08T11:36:32;7.54;46.42
83254;HTU21D;73149;47.270;39.602;2024-03-08T11:39:04;7.39;46.21
83254;HTU21D;73149;47.270;39.602;2024-03-08T11:41:43;7.59;45.87
83254;HTU21D;73149;47.270;39.602;2024-03-08T11:44:19;7.68;46.53
83254;HTU21D;73149;47.270;39.602;2024-03-08T11:47:14;7.96;46.64
83254;HTU21D;73149;47.270;39.602;2024-03-08T11:49:43;8.15;45.51
83254;HTU21D;73149;47.270;39.602;2024-03-08T11:55:14;8.48;46.31
83254;HTU21D;73149;47.270;39.602;2024-03-08T11:58:11;8.77;45.16
83254;HTU21D;73149;47.270;39.602;2024-03-08T12:00:38;8.96;45.80
83254;HTU21D;73149;47.270;39.602;2024-03-08T12:03:10;9.26;45.51
83254;HTU21D;73149;47.270;39.602;2024-03-08T12:05:57;9.10;44.03
83254;HTU21D;73149;47.270;39.602;2024-03-08T12:08:25;8.95;44.55
83254;HTU21D;73149;47.270;39.602;2024-03-08T12:10:58;9.00;43.77
83254;HTU21D;73149;47.270;39.602;2024-03-08T12:13:32;9.30;43.35
83254;HTU21D;73149;47.270;39.602;2024-03-08T12:16:05;9.44;43.40
83254;HTU21D;73149;47.270;39.602;2024-03-08T12:18:37;9.17;43.65
83254;HTU21D;73149;47.270;39.602;2024-03-08T12:21:32;9.15;44.20
83254;HTU21D;73149;47.270;39.602;2024-03-08T12:24:09;9.09;43.67
83254;HTU21D;73149;47.270;39.602;2024-03-08T12:26:42;8.61;44.11
83254;HTU21D;73149;47.270;39.602;2024-03-08T12:29:26;8.49;44.29
83254;HTU21D;73149;47.270;39.602;2024-03-08T12:31:55;8.93;44.61
83254;HTU21D;73149;47.270;39.602;2024-03-08T12:34:25;9.16;42.74
83254;HTU21D;73149;47.270;39.602;2024-03-08T12:36:53;9.20;42.76
83254;HTU21D;73149;47.270;39.602;2024-03-08T12:39:21;8.83;42.30
83254;HTU21D;73149;47.270;39.602;2024-03-08T12:41:59;8.44;42.71
83254;HTU21D;73149;47.270;39.602;2024-03-08T12:44:26;8.15;42.71
83254;HTU21D;73149;47.270;39.602;2024-03-08T12:46:54;8.56;42.02
83254;HTU21D;73149;47.270;39.602;2024-03-08T12:49:20;8.65;41.86
83254;HTU21D;73149;47.270;39.602;2024-03-08T12:51:52;8.51;41.82
83254;HTU21D;73149;47.270;39.602;2024-03-08T12:54:18;8.55;42.44
83254;HTU21D;73149;47.270;39.602;2024-03-08T12:56:49;8.78;41.90
83254;HTU21D;73149;47.270;39.602;2024-03-08T12:59:16;8.78;41.84
83254;HTU21D;73149;47.270;39.602;2024-03-08T13:01:42;8.83;42.17
83254;HTU21D;73149;47.270;39.602;2024-03-08T13:04:14;8.82;40.94
83254;HTU21D;73149;47.270;39.602;2024-03-08T13:06:41;8.50;41.28
83254;HTU21D;73149;47.270;39.602;2024-03-08T13:09:07;8.39;41.94
83254;HTU21D;73149;47.270;39.602;2024-03-08T13:11:33;8.83;41.75
83254;HTU21D;73149;47.270;39.602;2024-03-08T13:14:03;9.02;41.65
83254;HTU21D;73149;47.270;39.602;2024-03-08T13:16:32;8.88;40.89
83254;HTU21D;73149;47.270;39.602;2024-03-08T13:19:02;8.73;41.03
83254;HTU21D;73149;47.270;39.602;2024-03-08T13:21:30;8.86;41.12
83254;HTU21D;73149;47.270;39.602;2024-03-08T13:24:06;8.70;41.31
83254;HTU21D;73149;47.270;39.602;2024-03-08T13:26:38;8.85;41.65
83254;HTU21D;73149;47.270;39.602;2024-03-08T13:29:07;9.06;41.51
83254;HTU21D;73149;47.270;39.602;2024-03-08T13:31:42;8.77;40.65
83254;HTU21D;73149;47.270;39.602;2024-03-08T13:34:15;8.30;40.85
83254;HTU21D;73149;47.270;39.602;2024-03-08T13:36:45;7.94;41.68
83254;HTU21D;73149;47.270;39.602;2024-03-08T13:39:12;7.84;41.90
83254;HTU21D;73149;47.270;39.602;2024-03-08T13:41:44;7.65;40.92
83254;HTU21D;73149;47.270;39.602;2024-03-08T13:44:10;7.19;41.97
83254;HTU21D;73149;47.270;39.602;2024-03-08T13:46:36;7.16;41.94
83254;HTU21D;73149;47.270;39.602;2024-03-08T13:49:06;7.08;42.28
83254;HTU21D;73149;47.270;39.602;2024-03-08T13:51:38;6.81;42.55
83254;HTU21D;73149;47.270;39.602;2024-03-08T13:54:20;6.57;42.72
83254;HTU21D;73149;47.270;39.602;2024-03-08T13:56:52;6.33;43.04
83254;HTU21D;73149;47.270;39.602;2024-03-08T13:59:21;6.28;43.32
83254;HTU21D;73149;47.270;39.602;2024-03-08T14:01:50;6.19;43.39
83254;HTU21D;73149;47.270;39.602;2024-03-08T14:04:21;5.95;43.70
83254;HTU21D;73149;47.270;39.602;2024-03-08T14:06:47;5.57;44.05
83254;HTU21D;73149;47.270;39.602;2024-03-08T14:09:15;4.97;44.87
83254;HTU21D;73149;47.270;39.602;2024-03-08T14:11:55;4.61;45.48
83254;HTU21D;73149;47.270;39.602;2024-03-08T14:14:24;4.28;45.85
83254;HTU21D;73149;47.270;39.602;2024-03-08T14:16:56;4.08;46.22
83254;HTU21D;73149;47.270;39.602;2024-03-08T14:19:26;3.94;46.40
83254;HTU21D;73149;47.270;39.602;2024-03-08T14:21:57;3.84;46.59
83254;HTU21D;73149;47.270;39.602;2024-03-08T14:24:25;3.74;46.79
83254;HTU21D;73149;47.270;39.602;2024-03-08T14:26:51;3.67;46.89
83254;HTU21D;73149;47.270;39.602;2024-03-08T14:29:17;3.56;47.12
83254;HTU21D;73149;47.270;39.602;2024-03-08T14:31:44;3.55;47.23
83254;HTU21D;73149;47.270;39.602;2024-03-08T14:34:11;3.50;47.38
83254;HTU21D;73149;47.270;39.602;2024-03-08T14:36:46;3.47;47.47
83254;HTU21D;73149;47.270;39.602;2024-03-08T14:39:15;3.38;47.56
83254;HTU21D;73149;47.270;39.602;2024-03-08T14:41:57;3.26;47.90
83254;HTU21D;73149;47.270;39.602;2024-03-08T14:44:24;3.28;47.91
83254;HTU21D;73149;47.270;39.602;2024-03-08T14:47:01;3.15;48.03
83254;HTU21D;73149;47.270;39.602;2024-03-08T14:49:33;3.01;48.30
83254;HTU21D;73149;47.270;39.602;2024-03-08T14:52:02;2.89;48.51
83254;HTU21D;73149;47.270;39.602;2024-03-08T14:54:28;2.85;48.66
83254;HTU21D;73149;47.270;39.602;2024-03-08T14:57:23;2.78;48.76
83254;HTU21D;73149;47.270;39.602;2024-03-08T15:00:01;2.65;49.05
83254;HTU21D;73149;47.270;39.602;2024-03-08T15:05:14;2.46;49.35
83254;HTU21D;73149;47.270;39.602;2024-03-08T15:07:43;2.40;49.46
83254;HTU21D;73149;47.270;39.602;2024-03-08T15:10:33;2.28;49.79
83254;HTU21D;73149;47.270;39.602;2024-03-08T15:12:59;2.20;49.91
83254;HTU21D;73149;47.270;39.602;2024-03-08T15:16:01;2.08;50.27
83254;HTU21D;73149;47.270;39.602;2024-03-08T15:18:53;1.97;50.40
83254;HTU21D;73149;47.270;39.602;2024-03-08T15:21:57;1.84;50.77
83254;HTU21D;73149;47.270;39.602;2024-03-08T15:28:33;1.53;51.40
83254;HTU21D;73149;47.270;39.602;2024-03-08T15:31:23;1.48;51.53
83254;HTU21D;73149;47.270;39.602;2024-03-08T15:33:59;1.41;51.62
83254;HTU21D;73149;47.270;39.602;2024-03-08T15:36:39;1.35;51.72
83254;HTU21D;73149;47.270;39.602;2024-03-08T15:39:43;1.27;51.98
83254;HTU21D;73149;47.270;39.602;2024-03-08T15:42:23;1.23;52.15
83254;HTU21D;73149;47.270;39.602;2024-03-08T15:44:54;1.23;52.24
83254;HTU21D;73149;47.270;39.602;2024-03-08T15:47:29;1.23;52.26
83254;HTU21D;73149;47.270;39.602;2024-03-08T15:50:04;1.18;52.39
83254;HTU21D;73149;47.270;39.602;2024-03-08T15:53:00;1.12;52.48
83254;HTU21D;73149;47.270;39.602;2024-03-08T15:55:38;1.11;52.54
83254;HTU21D;73149;47.270;39.602;2024-03-08T15:58:07;1.09;52.58
83254;HTU21D;73149;47.270;39.602;2024-03-08T16:00:58;1.06;52.60
83254;HTU21D;73149;47.270;39.602;2024-03-08T16:04:19;0.98;52.67
83254;HTU21D;73149;47.270;39.602;2024-03-08T16:06:46;0.90;52.72
83254;HTU21D;73149;47.270;39.602;2024-03-08T16:09:20;0.86;52.89
83254;HTU21D;73149;47.270;39.602;2024-03-08T16:12:05;0.81;53.01
83254;HTU21D;73149;47.270;39.602;2024-03-08T16:14:48;0.77;53.00
83254;HTU21D;73149;47.270;39.602;2024-03-08T16:17:32;0.75;53.20
83254;HTU21D;73149;47.270;39.602;2024-03-08T16:20:11;0.75;53.17
83254;HTU21D;73149;47.270;39.602;2024-03-08T16:22:49;0.74;53.28
83254;HTU21D;73149;47.270;39.602;2024-03-08T16:25:28;0.71;53.29
83254;HTU21D;73149;47.270;39.602;2024-03-08T16:27:57;0.68;53.36
83254;HTU21D;73149;47.270;39.602;2024-03-08T16:30:23;0.61;53.54
83254;HTU21D;73149;47.270;39.602;2024-03-08T16:33:08;0.53;53.79
83254;HTU21D;73149;47.270;39.602;2024-03-08T16:35:36;0.46;53.94
83254;HTU21D;73149;47.270;39.602;2024-03-08T16:38:14;0.42;54.11
83254;HTU21D;73149;47.270;39.602;2024-03-08T16:40:53;0.38;54.20
83254;HTU21D;73149;47.270;39.602;2024-03-08T16:43:22;0.37;54.26
83254;HTU21D;73149;47.270;39.602;2024-03-08T16:45:51;0.34;54.31